Time;durP1;ratioP1;P1;durP2;ratioP2;P2;SDS_P1;SDS_P2;PMS_P1;PMS_P2;Temp;Humidity;BMP_temperature;BMP_pressure;BME280_temperature;BME280_humidity;BME280_pressure;Samples;Min_cycle;Max_cycle;Signal;HPM_P1;HPM_P2
2021/05/26 00:02:03;;;;;;;7.80;1.27;;;22.50;44.20;;;;;;5073872;28;20029;-77
2021/05/26 00:04:29;;;;;;;6.53;1.33;;;22.50;44.20;;;;;;5065390;28;20111;-76
2021/05/26 00:06:56;;;;;;;3.17;1.02;;;22.40;44.90;;;;;;5073179;28;20033;-76
2021/05/26 00:09:22;;;;;;;5.15;1.63;;;22.40;44.70;;;;;;5054864;28;20402;-76
2021/05/26 00:11:48;;;;;;;6.35;1.38;;;22.30;44.30;;;;;;5074189;28;20055;-76
2021/05/26 00:14:15;;;;;;;2.67;1.20;;;22.20;44.80;;;;;;5072021;28;20021;-76
2021/05/26 00:16:41;;;;;;;5.78;1.83;;;22.10;45.20;;;;;;5074571;28;20360;-76
2021/05/26 00:19:08;;;;;;;6.55;1.98;;;22.20;44.70;;;;;;5071566;28;20028;-76
2021/05/26 00:21:35;;;;;;;11.10;2.78;;;22.10;44.80;;;;;;5070184;28;20467;-75
2021/05/26 00:24:02;;;;;;;8.85;1.25;;;22.00;44.90;;;;;;5053472;28;20448;-76
2021/05/26 00:26:29;;;;;;;14.10;2.80;;;21.90;44.90;;;;;;5070262;28;20037;-76
2021/05/26 00:28:55;;;;;;;9.45;1.60;;;21.90;45.20;;;;;;5071715;28;20482;-75
2021/05/26 00:31:24;;;;;;;5.57;0.90;;;21.70;45.30;;;;;;5054041;28;20032;-76
2021/05/26 00:33:51;;;;;;;8.50;1.35;;;21.70;45.50;;;;;;5073629;28;20132;-77
2021/05/26 00:36:18;;;;;;;5.15;1.73;;;21.60;45.30;;;;;;5073378;28;20035;-77
2021/05/26 00:38:45;;;;;;;4.25;1.20;;;21.40;45.90;;;;;;5079738;28;20098;-77
2021/05/26 00:41:11;;;;;;;7.75;1.27;;;21.40;46.30;;;;;;5055690;28;20036;-76
2021/05/26 00:43:38;;;;;;;8.07;2.05;;;21.40;46.00;;;;;;5053619;28;20048;-77
2021/05/26 00:46:08;;;;;;;6.80;1.45;;;21.50;45.50;;;;;;5071877;28;20016;-77
2021/05/26 00:48:53;;;;;;;13.82;1.45;;;21.40;45.60;;;;;;5083998;28;20020;-78
2021/05/26 00:51:19;;;;;;;11.65;2.90;;;21.40;45.60;;;;;;5074524;28;20044;-77
2021/05/26 00:53:46;;;;;;;11.98;2.38;;;21.40;45.90;;;;;;5060338;28;20033;-78
2021/05/26 00:56:12;;;;;;;7.15;1.85;;;21.30;45.80;;;;;;5075114;28;20024;-77
2021/05/26 00:58:40;;;;;;;11.52;2.28;;;21.30;45.90;;;;;;5060785;28;20029;-77
2021/05/26 01:01:07;;;;;;;6.97;1.50;;;21.20;45.90;;;;;;5073335;28;20028;-78
2021/05/26 01:03:33;;;;;;;2.55;0.80;;;21.10;46.30;;;;;;5041121;28;20029;-77
2021/05/26 01:06:00;;;;;;;4.53;1.25;;;21.00;46.40;;;;;;5059101;28;20449;-77
2021/05/26 01:08:26;;;;;;;9.45;1.65;;;21.00;45.70;;;;;;5070640;28;20013;-77
2021/05/26 01:10:52;;;;;;;8.15;1.63;;;20.90;46.40;;;;;;5054152;28;20104;-77
2021/05/26 01:13:22;;;;;;;8.43;2.55;;;20.80;46.30;;;;;;5072807;28;20469;-76
2021/05/26 01:15:49;;;;;;;7.35;1.75;;;20.80;46.80;;;;;;5076801;28;20052;-78
2021/05/26 01:18:30;;;;;;;7.35;1.63;;;20.90;46.50;;;;;;5059039;28;20099;-77
2021/05/26 01:20:59;;;;;;;3.35;1.15;;;20.80;46.00;;;;;;5082012;28;20060;-77
2021/05/26 01:23:27;;;;;;;5.47;1.52;;;20.70;46.50;;;;;;5076267;28;20021;-77
2021/05/26 01:25:56;;;;;;;5.20;1.17;;;20.60;46.90;;;;;;5053461;28;20024;-77
2021/05/26 01:28:24;;;;;;;7.63;1.42;;;20.60;46.90;;;;;;5070286;28;20040;-76
2021/05/26 01:30:51;;;;;;;5.20;2.10;;;20.50;47.20;;;;;;5072813;28;20033;-76
2021/05/26 01:33:18;;;;;;;2.63;0.70;;;20.40;47.40;;;;;;5083630;28;20033;-78
2021/05/26 01:35:46;;;;;;;8.18;1.52;;;20.40;47.50;;;;;;5078846;28;20333;-78
2021/05/26 01:38:18;;;;;;;9.05;2.67;;;20.30;47.90;;;;;;5079973;28;20095;-79
2021/05/26 01:40:44;;;;;;;8.65;1.73;;;20.10;48.20;;;;;;5063561;28;20024;-78
2021/05/26 01:43:11;;;;;;;7.72;3.55;;;20.00;48.40;;;;;;5076624;28;20024;-78
2021/05/26 01:45:37;;;;;;;3.70;1.20;;;19.90;48.30;;;;;;5047100;28;20033;-77
2021/05/26 01:48:05;;;;;;;11.82;2.00;;;20.00;48.30;;;;;;5058835;28;20513;-77
2021/05/26 01:50:31;;;;;;;5.95;1.30;;;19.90;48.30;;;;;;5058226;28;20090;-79
2021/05/26 01:53:00;;;;;;;3.50;1.55;;;19.80;48.10;;;;;;5076647;28;20035;-78
2021/05/26 01:55:27;;;;;;;9.40;1.92;;;19.70;48.70;;;;;;5070345;28;20039;-78
2021/05/26 01:57:54;;;;;;;4.95;2.35;;;19.50;49.10;;;;;;5066149;28;20360;-78
2021/05/26 02:00:21;;;;;;;8.55;1.38;;;19.30;49.10;;;;;;5075240;28;20059;-78
2021/05/26 02:02:48;;;;;;;8.43;2.03;;;19.30;49.30;;;;;;5072317;28;20025;-78
2021/05/26 02:05:15;;;;;;;4.63;1.60;;;19.20;49.70;;;;;;5074524;28;20456;-78
2021/05/26 02:07:42;;;;;;;3.50;1.55;;;19.10;49.70;;;;;;5069243;28;20438;-78
2021/05/26 02:10:12;;;;;;;9.73;2.67;;;19.00;50.10;;;;;;5075653;28;20063;-78
2021/05/26 02:12:40;;;;;;;8.10;1.83;;;18.80;50.50;;;;;;5074061;28;20367;-78
2021/05/26 02:15:08;;;;;;;16.45;2.70;;;18.70;50.50;;;;;;5085933;28;20035;-78
2021/05/26 02:17:35;;;;;;;5.75;2.00;;;18.50;50.90;;;;;;5061194;28;20436;-78
2021/05/26 02:20:02;;;;;;;16.45;2.30;;;18.60;50.90;;;;;;5059718;28;20347;-78
2021/05/26 02:22:29;;;;;;;6.20;2.42;;;18.50;50.90;;;;;;5054316;28;20024;-78
2021/05/26 02:24:55;;;;;;;6.47;1.25;;;18.50;50.90;;;;;;5076675;28;20104;-78
2021/05/26 02:27:22;;;;;;;6.13;1.60;;;18.40;51.40;;;;;;5071503;28;20112;-79
2021/05/26 02:29:48;;;;;;;6.35;1.23;;;18.30;51.40;;;;;;5049077;28;20024;-78
2021/05/26 02:32:15;;;;;;;1.85;1.10;;;18.30;51.40;;;;;;5054160;28;20063;-78
2021/05/26 02:34:41;;;;;;;14.27;2.30;;;18.10;51.30;;;;;;5063278;28;20076;-78
2021/05/26 02:37:08;;;;;;;9.68;2.13;;;18.00;51.70;;;;;;5075012;28;20028;-78
2021/05/26 02:39:34;;;;;;;4.47;1.58;;;18.00;51.80;;;;;;5069717;28;20017;-79
2021/05/26 02:42:01;;;;;;;13.85;2.88;;;18.10;51.60;;;;;;5078575;28;20024;-78
2021/05/26 02:44:27;;;;;;;8.07;2.08;;;18.00;51.80;;;;;;5072326;28;20043;-78
2021/05/26 02:46:54;;;;;;;11.13;2.28;;;18.00;51.70;;;;;;5081949;28;20044;-79
2021/05/26 02:49:20;;;;;;;7.97;1.40;;;17.80;52.40;;;;;;5053128;28;20392;-78
2021/05/26 02:51:47;;;;;;;4.78;1.48;;;17.80;51.80;;;;;;5058808;28;20815;-77
2021/05/26 02:54:13;;;;;;;8.27;1.25;;;17.80;51.80;;;;;;5054038;28;20425;-77
2021/05/26 02:56:40;;;;;;;5.93;1.73;;;17.80;52.10;;;;;;5070214;28;20012;-77
2021/05/26 02:59:07;;;;;;;4.20;1.73;;;17.90;52.70;;;;;;5068521;28;20061;-77
2021/05/26 03:01:35;;;;;;;4.60;1.98;;;17.90;52.20;;;;;;5086030;28;20054;-78
2021/05/26 03:04:02;;;;;;;5.55;2.13;;;17.70;52.10;;;;;;5089533;28;20025;-77
2021/05/26 03:06:29;;;;;;;7.70;2.33;;;17.60;51.80;;;;;;5086656;28;20035;-77
2021/05/26 03:08:56;;;;;;;5.28;1.80;;;17.40;52.70;;;;;;5096863;28;20027;-77
2021/05/26 03:11:22;;;;;;;7.70;2.53;;;17.40;52.60;;;;;;5059030;28;20056;-77
2021/05/26 03:13:49;;;;;;;6.60;2.03;;;17.30;52.60;;;;;;5079166;28;20024;-79
2021/05/26 03:16:15;;;;;;;4.38;1.30;;;17.30;52.80;;;;;;5055265;28;20043;-77
2021/05/26 03:18:43;;;;;;;7.78;4.05;;;17.30;52.50;;;;;;5075642;28;20459;-77
2021/05/26 03:21:09;;;;;;;4.30;1.90;;;17.40;52.40;;;;;;5056141;28;20121;-77
2021/05/26 03:23:36;;;;;;;6.97;2.05;;;17.30;52.70;;;;;;5071867;28;20126;-77
2021/05/26 03:26:02;;;;;;;12.13;3.20;;;17.40;52.70;;;;;;5073735;28;20483;-78
2021/05/26 03:28:29;;;;;;;6.72;2.20;;;17.30;52.70;;;;;;5074165;28;20507;-78
2021/05/26 03:30:55;;;;;;;3.08;2.13;;;17.20;52.80;;;;;;5074031;28;20090;-78
2021/05/26 03:33:22;;;;;;;6.63;2.03;;;17.00;52.90;;;;;;5077315;28;20089;-78
2021/05/26 03:35:48;;;;;;;9.73;2.47;;;16.80;53.70;;;;;;5077773;28;20028;-77
2021/05/26 03:38:15;;;;;;;9.45;2.47;;;16.90;53.80;;;;;;5074280;28;20020;-78
2021/05/26 03:40:41;;;;;;;9.02;2.70;;;16.80;54.50;;;;;;5076860;28;20021;-78
2021/05/26 03:43:08;;;;;;;4.70;2.20;;;16.90;53.80;;;;;;5077355;28;20452;-78
2021/05/26 03:45:34;;;;;;;5.60;2.00;;;16.80;54.20;;;;;;5058139;28;20078;-78
2021/05/26 03:48:01;;;;;;;9.98;1.88;;;16.60;54.20;;;;;;5074316;28;20356;-78
2021/05/26 03:50:28;;;;;;;10.68;2.30;;;16.60;54.90;;;;;;5057222;28;20028;-77
2021/05/26 03:52:56;;;;;;;8.20;2.83;;;16.50;54.60;;;;;;5072309;28;20444;-78
2021/05/26 03:55:24;;;;;;;3.17;1.35;;;16.50;55.40;;;;;;5080220;28;20069;-77
2021/05/26 03:57:50;;;;;;;7.65;1.48;;;16.50;55.50;;;;;;5066119;28;20036;-78
2021/05/26 04:00:20;;;;;;;13.93;4.50;;;16.30;54.80;;;;;;5066057;28;20021;-77
2021/05/26 04:02:47;;;;;;;4.07;1.23;;;16.40;55.60;;;;;;5044596;28;20044;-77
2021/05/26 04:05:13;;;;;;;5.55;2.42;;;16.10;55.20;;;;;;5054334;28;20396;-77
2021/05/26 04:07:40;;;;;;;4.13;2.13;;;16.00;55.80;;;;;;5068457;28;20032;-77
2021/05/26 04:10:08;;;;;;;3.90;1.90;;;15.90;56.20;;;;;;5068254;28;20038;-77
2021/05/26 04:12:35;;;;;;;5.53;1.60;;;15.90;56.20;;;;;;5073522;28;20478;-78
2021/05/26 04:15:01;;;;;;;9.57;2.33;;;15.70;57.40;;;;;;5069205;28;20110;-78
2021/05/26 04:17:28;;;;;;;13.80;3.65;;;15.80;55.60;;;;;;5074574;28;20467;-78
2021/05/26 04:19:56;;;;;;;7.53;1.38;;;15.90;56.10;;;;;;5074485;28;20455;-78
2021/05/26 04:22:22;;;;;;;3.80;1.88;;;15.80;56.40;;;;;;5075139;28;20021;-78
2021/05/26 04:24:49;;;;;;;5.40;2.40;;;15.70;57.00;;;;;;5074164;28;20028;-78
2021/05/26 04:27:15;;;;;;;9.98;2.85;;;15.80;56.00;;;;;;5057738;28;20060;-77
2021/05/26 04:29:42;;;;;;;4.70;1.55;;;15.80;56.40;;;;;;5065157;28;20082;-77
2021/05/26 04:32:08;;;;;;;4.72;1.55;;;15.70;56.10;;;;;;5067461;28;20028;-77
2021/05/26 04:34:34;;;;;;;8.30;1.63;;;16.10;56.40;;;;;;5046807;28;20400;-77
2021/05/26 04:37:01;;;;;;;3.72;1.92;;;16.00;56.70;;;;;;5054758;28;20034;-77
2021/05/26 04:39:27;;;;;;;20.05;3.05;;;15.90;55.60;;;;;;5050192;28;20025;-77
2021/05/26 04:41:56;;;;;;;7.40;1.50;;;15.90;56.20;;;;;;5060155;28;20051;-78
2021/05/26 04:44:23;;;;;;;14.38;2.58;;;15.80;55.50;;;;;;5057957;28;20035;-78
2021/05/26 04:46:49;;;;;;;8.57;3.13;;;15.90;55.80;;;;;;5074142;28;20029;-79
2021/05/26 04:49:16;;;;;;;5.68;2.58;;;16.00;56.50;;;;;;5057959;28;20447;-77
2021/05/26 04:51:42;;;;;;;5.85;1.33;;;16.00;56.20;;;;;;5054991;28;20455;-78
2021/05/26 04:54:09;;;;;;;8.35;2.42;;;15.80;56.80;;;;;;5055866;28;20036;-78
2021/05/26 04:56:36;;;;;;;9.57;2.65;;;15.80;56.70;;;;;;5057034;28;20028;-78
2021/05/26 04:59:03;;;;;;;8.30;3.25;;;15.70;57.00;;;;;;5068504;28;20032;-78
2021/05/26 05:01:29;;;;;;;12.02;3.22;;;15.60;57.20;;;;;;5054665;28;20079;-78
2021/05/26 05:03:56;;;;;;;5.55;2.00;;;15.30;58.80;;;;;;5052885;28;20047;-78
2021/05/26 05:06:22;;;;;;;8.82;1.73;;;15.20;58.70;;;;;;5057634;28;20024;-78
2021/05/26 05:08:49;;;;;;;14.30;3.47;;;15.30;58.10;;;;;;5072008;28;20113;-78
2021/05/26 05:11:15;;;;;;;12.40;2.67;;;15.30;58.70;;;;;;5057440;28;20079;-78
2021/05/26 05:13:42;;;;;;;9.63;1.95;;;15.30;57.20;;;;;;5055062;28;20048;-77
2021/05/26 05:16:08;;;;;;;12.57;2.92;;;15.30;57.80;;;;;;5074284;28;20111;-78
2021/05/26 05:18:35;;;;;;;8.07;2.03;;;15.40;57.40;;;;;;5066723;28;20129;-77
2021/05/26 05:21:01;;;;;;;11.95;1.67;;;15.40;56.30;;;;;;5074864;28;20060;-77
2021/05/26 05:23:27;;;;;;;7.93;2.05;;;15.30;57.90;;;;;;5056260;28;20030;-77
2021/05/26 05:25:54;;;;;;;12.60;1.98;;;15.30;58.30;;;;;;5042645;28;20040;-77
2021/05/26 05:28:20;;;;;;;9.75;2.17;;;15.20;57.90;;;;;;5044982;28;20052;-77
2021/05/26 05:30:48;;;;;;;12.55;3.10;;;15.10;58.20;;;;;;5039233;28;20029;-78
2021/05/26 05:33:14;;;;;;;20.77;4.68;;;15.40;57.70;;;;;;5056441;28;20135;-77
2021/05/26 05:35:41;;;;;;;13.13;3.10;;;15.40;57.20;;;;;;5069948;28;20328;-78
2021/05/26 05:38:07;;;;;;;4.28;2.25;;;15.40;56.80;;;;;;5039726;28;20110;-77
2021/05/26 05:40:34;;;;;;;17.70;3.25;;;15.40;57.30;;;;;;5048079;28;20021;-78
2021/05/26 05:43:00;;;;;;;7.55;2.80;;;15.40;57.10;;;;;;5056431;28;20028;-78
2021/05/26 05:45:27;;;;;;;14.25;5.00;;;15.30;57.40;;;;;;5049139;28;20036;-77
2021/05/26 05:47:53;;;;;;;13.13;2.80;;;15.40;57.90;;;;;;5055973;28;20032;-78
2021/05/26 05:50:19;;;;;;;16.50;3.75;;;15.20;57.30;;;;;;5053923;28;20491;-78
2021/05/26 05:52:49;;;;;;;9.45;2.25;;;15.20;58.00;;;;;;5073685;28;20052;-78
2021/05/26 05:55:17;;;;;;;10.80;3.13;;;15.20;57.10;;;;;;5073415;28;20032;-77
2021/05/26 05:57:43;;;;;;;12.10;3.00;;;15.10;57.50;;;;;;5055011;28;20371;-78
2021/05/26 06:00:11;;;;;;;9.88;2.00;;;15.10;58.10;;;;;;5073673;28;20058;-78
2021/05/26 06:02:37;;;;;;;18.23;2.92;;;15.10;57.60;;;;;;5047441;28;20060;-78
2021/05/26 06:05:04;;;;;;;9.07;2.85;;;15.20;57.70;;;;;;5063544;28;20107;-78
2021/05/26 06:07:30;;;;;;;11.65;2.33;;;15.10;58.60;;;;;;5069560;28;20028;-78
2021/05/26 06:09:57;;;;;;;7.78;2.55;;;15.30;58.50;;;;;;5073810;28;20043;-78
2021/05/26 06:12:24;;;;;;;13.73;4.32;;;15.10;57.80;;;;;;5068544;28;20059;-77
2021/05/26 06:14:50;;;;;;;11.00;2.40;;;15.30;58.40;;;;;;5057093;28;20355;-77
2021/05/26 06:17:17;;;;;;;16.58;4.07;;;15.00;58.70;;;;;;5075547;28;20037;-77
2021/05/26 06:19:43;;;;;;;14.20;2.80;;;15.00;58.40;;;;;;5076738;28;20020;-77
2021/05/26 06:22:09;;;;;;;11.32;2.83;;;14.90;58.20;;;;;;5076279;28;20039;-77
2021/05/26 06:24:36;;;;;;;9.20;2.90;;;14.80;59.40;;;;;;5040164;28;20032;-78
2021/05/26 06:27:02;;;;;;;13.65;2.75;;;14.80;60.20;;;;;;5075092;28;20036;-77
2021/05/26 06:29:29;;;;;;;14.93;2.72;;;14.80;58.90;;;;;;5072881;28;20035;-78
2021/05/26 06:31:56;;;;;;;18.50;3.53;;;14.80;59.30;;;;;;5038970;28;20570;-77
2021/05/26 06:34:22;;;;;;;15.00;5.20;;;14.70;59.40;;;;;;5065581;28;20416;-78
2021/05/26 06:36:49;;;;;;;18.10;3.63;;;14.70;59.20;;;;;;5057135;28;20028;-78
2021/05/26 06:39:15;;;;;;;18.85;3.58;;;14.70;58.70;;;;;;5051462;28;20526;-77
2021/05/26 06:41:42;;;;;;;11.55;2.92;;;14.80;59.00;;;;;;5056769;28;20033;-77
2021/05/26 06:44:08;;;;;;;9.88;2.05;;;14.60;59.00;;;;;;5052495;28;20029;-79
2021/05/26 06:46:35;;;;;;;25.00;4.18;;;14.60;59.50;;;;;;5073843;28;20108;-78
2021/05/26 06:49:03;;;;;;;19.05;4.10;;;14.60;59.00;;;;;;5056629;28;20440;-77
2021/05/26 06:51:30;;;;;;;16.85;3.45;;;14.70;58.90;;;;;;5076194;28;20040;-77
2021/05/26 06:53:56;;;;;;;10.45;3.40;;;14.50;59.50;;;;;;5076562;28;20028;-77
2021/05/26 06:56:23;;;;;;;8.10;3.33;;;14.60;59.10;;;;;;5053084;28;20032;-77
2021/05/26 06:58:50;;;;;;;16.80;4.82;;;14.50;58.50;;;;;;5058685;28;20371;-77
2021/05/26 07:01:16;;;;;;;9.85;3.67;;;14.60;58.50;;;;;;5074523;28;20089;-77
2021/05/26 07:03:43;;;;;;;16.98;4.43;;;14.60;59.30;;;;;;5058243;28;20021;-77
2021/05/26 07:06:09;;;;;;;10.23;2.38;;;14.50;59.80;;;;;;5074567;28;20027;-77
2021/05/26 07:08:36;;;;;;;6.13;3.00;;;14.50;59.00;;;;;;5076111;28;20374;-77
2021/05/26 07:11:02;;;;;;;11.55;2.40;;;14.50;60.20;;;;;;5071718;28;20055;-77
2021/05/26 07:13:29;;;;;;;20.08;5.50;;;14.40;59.70;;;;;;5072992;28;20064;-77
2021/05/26 07:15:55;;;;;;;14.13;3.53;;;14.40;59.10;;;;;;5057258;28;20043;-77
2021/05/26 07:18:22;;;;;;;9.27;2.55;;;14.50;59.50;;;;;;5073422;28;20390;-78
2021/05/26 07:20:49;;;;;;;11.43;4.22;;;14.50;59.50;;;;;;5055879;28;20067;-77
2021/05/26 07:23:17;;;;;;;16.05;3.38;;;14.40;60.00;;;;;;5059994;28;20460;-77
2021/05/26 07:25:43;;;;;;;8.75;2.40;;;14.40;59.50;;;;;;5056232;28;20039;-78
2021/05/26 07:28:10;;;;;;;4.07;1.55;;;14.40;60.00;;;;;;5056022;28;20051;-77
2021/05/26 07:30:37;;;;;;;6.18;2.13;;;14.30;59.50;;;;;;5057504;28;20028;-77
2021/05/26 07:33:03;;;;;;;6.90;2.03;;;14.40;59.70;;;;;;5046716;28;20376;-76
2021/05/26 07:35:30;;;;;;;9.90;3.03;;;14.40;59.10;;;;;;5059836;28;20063;-76
2021/05/26 07:37:56;;;;;;;13.93;2.85;;;14.40;59.90;;;;;;5073832;28;20397;-77
2021/05/26 07:40:22;;;;;;;8.80;2.13;;;14.30;60.00;;;;;;5075678;28;20029;-77
2021/05/26 07:42:49;;;;;;;10.77;2.92;;;14.40;59.70;;;;;;5071719;28;20075;-77
2021/05/26 07:45:15;;;;;;;16.80;4.65;;;14.40;59.50;;;;;;5050103;28;20025;-77
2021/05/26 07:47:42;;;;;;;8.20;3.25;;;14.40;59.20;;;;;;5074410;28;20440;-77
2021/05/26 07:50:09;;;;;;;13.77;2.75;;;14.30;59.40;;;;;;5056888;28;20032;-76
2021/05/26 07:52:36;;;;;;;19.08;5.22;;;14.40;58.80;;;;;;5040543;28;20071;-77
2021/05/26 07:55:03;;;;;;;9.07;3.28;;;14.30;59.40;;;;;;5059256;28;20029;-77
2021/05/26 07:57:29;;;;;;;8.65;3.45;;;14.30;59.30;;;;;;5069330;28;20032;-78
2021/05/26 07:59:55;;;;;;;18.58;2.88;;;14.30;59.90;;;;;;5062165;28;20029;-77
2021/05/26 08:02:22;;;;;;;8.15;2.72;;;14.20;60.10;;;;;;5054984;28;20029;-77
2021/05/26 08:04:48;;;;;;;7.68;2.72;;;14.20;59.90;;;;;;5066931;28;20025;-77
2021/05/26 08:07:15;;;;;;;10.93;2.58;;;14.20;60.00;;;;;;5070365;28;20035;-77
2021/05/26 08:09:41;;;;;;;15.75;2.85;;;14.20;60.00;;;;;;5070668;28;20047;-78
2021/05/26 08:12:09;;;;;;;9.95;2.65;;;14.20;59.20;;;;;;5048860;28;20032;-77
2021/05/26 08:14:36;;;;;;;11.23;2.58;;;14.20;59.80;;;;;;5072462;28;20028;-77
2021/05/26 08:17:04;;;;;;;11.52;4.35;;;14.10;60.40;;;;;;5058030;28;20477;-77
2021/05/26 08:19:30;;;;;;;5.50;2.33;;;14.10;60.40;;;;;;5056511;28;20370;-77
2021/05/26 08:21:57;;;;;;;16.42;2.80;;;14.10;60.20;;;;;;5040371;28;20028;-77
2021/05/26 08:24:23;;;;;;;12.70;3.03;;;14.10;60.70;;;;;;5054930;28;20021;-77
2021/05/26 08:26:51;;;;;;;14.77;3.72;;;14.10;60.50;;;;;;5055753;28;20029;-77
2021/05/26 08:29:18;;;;;;;10.80;4.07;;;14.10;60.60;;;;;;5057090;28;20112;-77
2021/05/26 08:31:44;;;;;;;9.30;2.40;;;14.00;60.40;;;;;;5065172;28;20029;-77
2021/05/26 08:34:11;;;;;;;14.45;3.17;;;14.00;60.90;;;;;;5036522;28;20025;-76
2021/05/26 08:36:38;;;;;;;5.13;1.77;;;13.90;61.60;;;;;;5073080;28;20028;-77
2021/05/26 08:39:06;;;;;;;22.40;3.30;;;13.80;62.20;;;;;;5074318;28;20103;-77
2021/05/26 08:41:32;;;;;;;9.90;3.33;;;13.80;61.70;;;;;;5071978;28;20028;-76
2021/05/26 08:43:59;;;;;;;8.00;3.28;;;13.80;61.80;;;;;;5073967;28;20032;-77
2021/05/26 08:46:28;;;;;;;4.68;1.60;;;13.80;61.20;;;;;;5074157;28;20066;-78
2021/05/26 08:49:01;;;;;;;10.68;3.15;;;13.80;60.80;;;;;;5072332;28;20028;-78
2021/05/26 08:51:28;;;;;;;13.63;4.18;;;13.90;59.50;;;;;;5057004;28;20463;-78
2021/05/26 08:53:55;;;;;;;16.13;5.50;;;14.20;60.30;;;;;;5073780;28;20059;-77
2021/05/26 08:56:21;;;;;;;15.02;4.57;;;14.20;59.90;;;;;;5074111;28;20363;-77
2021/05/26 08:58:48;;;;;;;7.10;1.75;;;14.20;59.50;;;;;;5066140;28;20417;-77
2021/05/26 09:01:14;;;;;;;9.52;3.42;;;14.20;59.30;;;;;;5073792;28;20020;-77
2021/05/26 09:03:41;;;;;;;12.60;3.47;;;14.10;60.30;;;;;;5066031;28;20082;-77
2021/05/26 09:06:11;;;;;;;7.22;3.13;;;14.00;60.70;;;;;;5054340;28;20055;-77
2021/05/26 09:08:47;;;;;;;9.40;2.65;;;13.90;60.80;;;;;;5058903;28;20044;-77
2021/05/26 09:11:14;;;;;;;9.73;2.78;;;13.90;60.50;;;;;;5073927;28;20024;-77
2021/05/26 09:13:43;;;;;;;13.55;5.57;;;14.00;60.30;;;;;;5072245;28;20063;-77
2021/05/26 09:16:30;;;;;;;7.22;3.15;;;14.10;60.60;;;;;;5073864;28;20028;-78
2021/05/26 09:19:04;;;;;;;18.73;4.22;;;14.00;61.00;;;;;;5072947;28;20317;-77
2021/05/26 09:21:37;;;;;;;13.45;3.10;;;14.00;59.90;;;;;;5073708;28;20507;-76
2021/05/26 09:24:23;;;;;;;16.80;4.32;;;14.00;60.70;;;;;;5073817;28;20025;-77
2021/05/26 09:26:51;;;;;;;7.40;3.67;;;13.90;61.10;;;;;;5054055;28;20029;-78
2021/05/26 09:29:32;;;;;;;10.20;3.80;;;13.90;60.70;;;;;;5053984;28;20067;-77
2021/05/26 09:32:22;;;;;;;8.75;2.05;;;13.90;61.00;;;;;;5066350;28;20341;-77
2021/05/26 09:34:53;;;;;;;13.82;3.25;;;13.90;60.00;;;;;;5054538;28;20170;-77
2021/05/26 09:37:26;;;;;;;9.60;3.47;;;13.90;61.40;;;;;;5073381;28;20058;-78
2021/05/26 09:40:06;;;;;;;10.93;2.30;;;14.00;60.70;;;;;;5074038;28;20031;-77
2021/05/26 09:42:38;;;;;;;18.20;3.42;;;14.00;60.80;;;;;;5055033;28;20021;-77
2021/05/26 09:45:07;;;;;;;4.22;2.42;;;14.00;60.50;;;;;;5074679;28;20100;-77
2021/05/26 09:47:35;;;;;;;11.23;3.00;;;14.00;59.90;;;;;;5043302;28;20082;-78
2021/05/26 09:50:24;;;;;;;4.00;2.38;;;13.90;60.30;;;;;;5075007;28;20039;-77
2021/05/26 09:52:57;;;;;;;16.52;3.58;;;13.80;61.70;;;;;;5076671;28;20386;-77
2021/05/26 09:55:35;;;;;;;4.20;2.50;;;13.90;60.50;;;;;;5059796;28;20028;-77
2021/05/26 09:58:04;;;;;;;7.05;2.63;;;13.90;60.70;;;;;;5062707;28;20029;-77
2021/05/26 10:00:31;;;;;;;12.98;3.03;;;13.80;61.60;;;;;;5068671;28;20029;-77
2021/05/26 10:02:58;;;;;;;16.48;4.68;;;13.90;60.90;;;;;;5065598;28;20464;-78
2021/05/26 10:05:25;;;;;;;12.80;2.78;;;13.90;61.10;;;;;;5039777;28;20067;-77
2021/05/26 10:07:54;;;;;;;18.80;5.22;;;13.80;61.20;;;;;;5045356;28;20028;-78
2021/05/26 10:10:23;;;;;;;6.40;1.73;;;13.80;60.80;;;;;;5077812;28;20013;-76
2021/05/26 10:12:53;;;;;;;6.07;2.13;;;13.90;61.50;;;;;;5062830;28;20029;-76
2021/05/26 10:15:22;;;;;;;14.73;3.30;;;13.80;62.10;;;;;;5062878;28;20029;-77
2021/05/26 10:17:51;;;;;;;13.10;4.53;;;13.70;62.20;;;;;;5074853;28;20033;-76
2021/05/26 10:20:21;;;;;;;3.08;1.90;;;13.60;62.90;;;;;;5063223;28;20024;-76
2021/05/26 10:22:49;;;;;;;11.80;2.95;;;13.50;64.00;;;;;;5077108;28;20016;-77
2021/05/26 10:25:17;;;;;;;10.75;2.50;;;13.50;62.70;;;;;;5065224;28;20021;-77
2021/05/26 10:27:45;;;;;;;6.32;2.58;;;13.50;64.00;;;;;;5077284;28;20025;-78
2021/05/26 10:30:12;;;;;;;8.75;3.30;;;13.50;63.30;;;;;;5069537;28;20036;-77
2021/05/26 10:32:53;;;;;;;3.53;2.72;;;13.50;63.10;;;;;;5073215;28;20032;-77
2021/05/26 10:35:21;;;;;;;6.55;2.60;;;13.50;63.20;;;;;;5085067;28;20033;-77
2021/05/26 10:38:00;;;;;;;11.15;3.55;;;13.50;63.20;;;;;;5091013;28;20024;-77
2021/05/26 10:40:33;;;;;;;8.48;2.33;;;13.60;62.60;;;;;;5067299;28;20020;-77
2021/05/26 10:43:23;;;;;;;6.70;3.08;;;13.50;63.40;;;;;;5063436;28;20025;-77
2021/05/26 10:45:53;;;;;;;7.13;3.25;;;13.40;64.20;;;;;;5066568;28;20064;-77
2021/05/26 10:48:38;;;;;;;6.10;2.72;;;13.40;64.30;;;;;;5071929;28;20078;-78
2021/05/26 10:51:06;;;;;;;6.28;2.38;;;13.40;62.90;;;;;;5076322;28;20029;-79
2021/05/26 10:53:40;;;;;;;16.80;3.80;;;13.40;63.20;;;;;;5059485;28;20037;-78
2021/05/26 10:56:07;;;;;;;10.15;4.72;;;13.40;63.10;;;;;;5067416;28;20033;-77
2021/05/26 10:58:43;;;;;;;8.85;2.55;;;13.40;63.00;;;;;;5038687;28;20124;-77
2021/05/26 11:01:13;;;;;;;13.82;2.35;;;13.40;61.60;;;;;;5064217;28;20036;-76
2021/05/26 11:03:44;;;;;;;16.63;3.05;;;13.50;62.60;;;;;;5058838;28;20024;-77
2021/05/26 11:06:13;;;;;;;13.55;4.63;;;13.40;62.30;;;;;;5075253;28;20032;-76
2021/05/26 11:11:33;;;;;;;18.05;4.75;;;13.60;62.80;;;;;;5075351;28;20037;-77
2021/05/26 11:14:13;;;;;;;7.38;2.40;;;13.70;63.90;;;;;;5075852;28;20035;-77
2021/05/26 11:16:46;;;;;;;8.05;3.65;;;13.70;62.60;;;;;;5056774;28;20024;-77
2021/05/26 11:19:24;;;;;;;9.63;2.78;;;13.70;64.70;;;;;;5073647;28;20085;-77
2021/05/26 11:21:58;;;;;;;11.65;2.97;;;13.70;63.20;;;;;;5075012;28;20040;-77
2021/05/26 11:24:26;;;;;;;5.05;2.60;;;13.60;63.30;;;;;;5075783;28;20460;-77
2021/05/26 11:26:53;;;;;;;8.80;3.30;;;13.40;63.50;;;;;;5074093;28;20161;-77
2021/05/26 11:29:48;;;;;;;9.82;2.35;;;13.40;63.00;;;;;;5066639;28;20524;-77
2021/05/26 11:32:21;;;;;;;18.75;3.63;;;13.50;63.30;;;;;;5056721;28;20036;-77
2021/05/26 11:34:49;;;;;;;11.65;3.05;;;13.50;64.00;;;;;;5062995;28;20029;-77
2021/05/26 11:37:36;;;;;;;7.93;2.67;;;13.50;63.30;;;;;;5074276;28;20028;-77
2021/05/26 11:40:23;;;;;;;10.38;3.22;;;13.60;64.00;;;;;;5073510;28;20103;-77
2021/05/26 11:42:51;;;;;;;5.38;2.47;;;13.40;63.20;;;;;;5075713;28;20043;-77
2021/05/26 11:45:17;;;;;;;11.38;3.22;;;13.30;63.40;;;;;;5073975;28;20486;-77
2021/05/26 11:47:51;;;;;;;5.22;2.28;;;13.20;63.60;;;;;;5075455;28;20032;-78
2021/05/26 11:50:19;;;;;;;11.02;3.55;;;13.30;64.20;;;;;;5069828;28;20476;-77
2021/05/26 11:52:52;;;;;;;10.10;3.33;;;13.40;63.60;;;;;;5075206;28;20081;-77
2021/05/26 11:55:24;;;;;;;13.45;3.38;;;13.30;63.60;;;;;;5045712;28;20346;-78
2021/05/26 11:57:53;;;;;;;10.82;2.70;;;13.30;64.10;;;;;;5055502;28;20028;-77
2021/05/26 12:00:35;;;;;;;10.63;4.72;;;13.40;64.00;;;;;;5059312;28;20021;-77
2021/05/26 12:03:10;;;;;;;10.30;2.92;;;13.30;63.50;;;;;;5075122;28;20032;-77
2021/05/26 12:05:39;;;;;;;11.15;2.80;;;13.40;63.90;;;;;;5073582;28;20070;-77
2021/05/26 12:08:23;;;;;;;14.45;4.07;;;13.30;64.30;;;;;;5074712;28;20135;-77
2021/05/26 12:10:55;;;;;;;9.50;3.40;;;13.20;65.30;;;;;;5056771;28;20410;-77
2021/05/26 12:13:22;;;;;;;;;;;13.20;64.50;;;;;;5075535;28;20021;-77
2021/05/26 12:15:50;;;;;;;8.88;3.80;;;13.10;64.00;;;;;;5073531;28;19913;-77
2021/05/26 12:18:17;;;;;;;14.95;5.10;;;13.20;64.60;;;;;;5074780;28;20029;-77
2021/05/26 12:20:45;;;;;;;8.20;2.58;;;13.10;65.10;;;;;;5073259;28;20035;-77
2021/05/26 12:23:12;;;;;;;9.93;3.58;;;13.00;65.50;;;;;;5075066;28;20325;-77
2021/05/26 12:25:46;;;;;;;9.88;3.75;;;12.90;66.10;;;;;;5057072;28;20048;-77
2021/05/26 12:28:20;;;;;;;10.20;3.30;;;12.90;64.80;;;;;;5056136;28;20032;-76
2021/05/26 12:30:48;;;;;;;6.70;2.88;;;13.00;65.70;;;;;;5074530;28;20474;-77
2021/05/26 12:33:20;;;;;;;14.23;3.67;;;13.00;65.40;;;;;;5060660;28;20078;-78
2021/05/26 12:36:08;;;;;;;14.15;3.50;;;13.00;65.00;;;;;;5074241;28;20024;-77
2021/05/26 12:38:40;;;;;;;9.55;2.90;;;13.00;64.50;;;;;;5041377;28;20400;-77
2021/05/26 12:41:32;;;;;;;11.55;2.80;;;13.10;65.30;;;;;;5046310;28;20035;-77
2021/05/26 12:44:19;;;;;;;8.95;2.88;;;13.10;65.20;;;;;;5046396;28;20036;-76
2021/05/26 12:46:54;;;;;;;9.45;2.53;;;12.90;66.10;;;;;;5056110;28;20367;-77
2021/05/26 12:52:07;;;;;;;14.35;3.42;;;13.00;64.80;;;;;;5074572;28;20037;-77
2021/05/26 12:54:45;;;;;;;6.35;2.30;;;13.00;64.20;;;;;;5042094;28;20033;-77
2021/05/26 12:57:14;;;;;;;10.85;2.67;;;13.00;65.90;;;;;;5072842;28;20056;-77